Time;durP1;ratioP1;P1;durP2;ratioP2;P2;SDS_P1;SDS_P2;PMS_P1;PMS_P2;Temp;Humidity;BMP_temperature;BMP_pressure;BME280_temperature;BME280_humidity;BME280_pressure;Samples;Min_cycle;Max_cycle;Signal;HPM_P1;HPM_P2
2023/03/09 00:01:27;;;;;;;17.70;5.80;;;;;;;7.13;81.59;96327.02;104563;1264;112339;-76
2023/03/09 00:03:55;;;;;;;15.50;6.40;;;;;;;7.17;81.87;96327.73;104568;1267;99399;-74
2023/03/09 00:06:22;;;;;;;12.40;6.60;;;;;;;7.17;82.20;96329.45;104522;1276;107014;-75
2023/03/09 00:08:50;;;;;;;13.20;7.00;;;;;;;7.16;82.35;96329.57;104790;1261;99333;-74
2023/03/09 00:11:18;;;;;;;16.50;7.80;;;;;;;7.16;82.36;96330.42;104959;1261;99675;-77
2023/03/09 00:13:46;;;;;;;14.50;7.30;;;;;;;7.14;82.75;96330.84;104709;1264;112692;-75
2023/03/09 00:16:19;;;;;;;11.20;5.30;;;;;;;7.11;82.92;96329.52;104640;1280;99290;-71
2023/03/09 00:18:47;;;;;;;13.60;6.40;;;;;;;7.10;82.82;96331.83;104924;1258;109413;-72
2023/03/09 00:21:34;;;;;;;18.90;7.10;;;;;;;7.08;83.70;96332.27;104839;1260;100537;-71
2023/03/09 00:24:13;;;;;;;9.80;5.40;;;;;;;7.04;84.00;96332.91;104960;1260;100423;-72
2023/03/09 00:26:46;;;;;;;16.00;7.10;;;;;;;7.03;84.08;96328.84;104600;1257;113315;-75
2023/03/09 00:29:13;;;;;;;13.70;7.30;;;;;;;7.00;85.00;96319.27;104622;1277;99368;-68
2023/03/09 00:31:42;;;;;;;15.10;6.70;;;;;;;6.98;85.14;96315.10;104831;1271;99255;-73
2023/03/09 00:34:10;;;;;;;18.60;8.70;;;;;;;6.97;85.86;96313.98;104925;1272;99327;-73
2023/03/09 00:36:38;;;;;;;20.10;8.80;;;;;;;6.98;85.68;96316.27;104874;1261;100911;-74
2023/03/09 00:39:05;;;;;;;15.10;6.70;;;;;;;6.98;85.92;96320.84;104982;1280;113434;-74
2023/03/09 00:41:33;;;;;;;17.20;6.70;;;;;;;6.98;86.19;96317.96;104871;1263;99316;-75
2023/03/09 00:44:02;;;;;;;11.40;6.10;;;;;;;6.97;86.45;96315.15;104863;1273;99244;-75
2023/03/09 00:46:31;;;;;;;10.90;5.60;;;;;;;6.98;86.44;96312.61;104906;1257;99237;-73
2023/03/09 00:49:07;;;;;;;16.40;7.40;;;;;;;6.99;86.64;96308.05;104675;1264;100018;-74
2023/03/09 00:51:42;;;;;;;13.60;7.40;;;;;;;6.98;86.95;96300.70;104795;1257;113351;-71
2023/03/09 00:54:15;;;;;;;12.00;6.70;;;;;;;6.96;86.75;96297.08;104897;1280;99564;-72
2023/03/09 00:56:45;;;;;;;16.50;8.20;;;;;;;6.96;87.09;96295.44;104842;1257;108343;-73
2023/03/09 00:59:12;;;;;;;24.20;8.90;;;;;;;6.97;86.53;96292.89;104923;1257;100536;-73
2023/03/09 01:01:40;;;;;;;10.70;4.60;;;;;;;6.96;86.80;96289.61;104891;1261;99228;-73
2023/03/09 01:04:07;;;;;;;17.10;8.60;;;;;;;6.96;87.18;96286.89;104572;1280;99443;-72
2023/03/09 01:06:35;;;;;;;11.40;6.00;;;;;;;6.96;87.33;96280.64;104771;1260;291059;-71
2023/03/09 01:09:02;;;;;;;10.70;5.50;;;;;;;6.95;87.48;96281.39;104809;1257;99282;-73
2023/03/09 01:11:29;;;;;;;13.50;7.70;;;;;;;6.94;87.59;96281.06;104900;1260;99256;-73
2023/03/09 01:13:56;;;;;;;12.60;6.70;;;;;;;6.95;87.58;96280.32;104941;1256;99244;-73
2023/03/09 01:16:23;;;;;;;13.20;6.40;;;;;;;6.96;87.71;96276.45;104943;1262;99265;-71
2023/03/09 01:18:50;;;;;;;11.80;6.10;;;;;;;6.95;87.69;96276.27;104910;1273;99306;-71
2023/03/09 01:21:18;;;;;;;11.90;5.40;;;;;;;6.95;87.47;96269.10;104863;1270;99316;-74
2023/03/09 01:23:45;;;;;;;12.40;5.80;;;;;;;6.93;87.70;96262.38;104945;1272;99154;-73
2023/03/09 01:26:13;;;;;;;13.80;6.50;;;;;;;6.91;87.77;96254.48;104811;1263;99316;-74
2023/03/09 01:28:39;;;;;;;9.80;5.30;;;;;;;6.91;87.98;96251.42;104744;1262;99314;-71
2023/03/09 01:31:08;;;;;;;12.80;4.60;;;;;;;6.92;87.85;96248.67;104736;1274;99288;-80
2023/03/09 01:33:36;;;;;;;29.50;11.20;;;;;;;6.94;87.70;96249.04;104682;1273;99343;-73
2023/03/09 01:36:08;;;;;;;19.60;8.80;;;;;;;6.94;87.50;96244.74;104882;1261;100041;-73
2023/03/09 01:38:35;;;;;;;19.60;8.20;;;;;;;6.94;87.68;96247.69;104619;1266;111378;-72
2023/03/09 01:41:03;;;;;;;15.80;6.80;;;;;;;6.93;87.76;96244.40;104905;1262;99230;-73
2023/03/09 01:43:34;;;;;;;16.50;6.90;;;;;;;6.93;88.20;96244.58;104916;1271;99310;-73
2023/03/09 01:46:56;;;;;;;11.60;5.70;;;;;;;6.92;88.03;96234.04;104919;1257;99368;-72
2023/03/09 01:49:43;;;;;;;12.40;5.20;;;;;;;6.92;88.52;96231.70;104339;1268;100429;-73
2023/03/09 01:52:24;;;;;;;12.00;5.60;;;;;;;6.91;89.02;96230.89;104335;1270;113682;-71
2023/03/09 01:55:04;;;;;;;13.00;5.50;;;;;;;6.92;89.15;96234.34;104173;1268;99426;-73
2023/03/09 01:57:37;;;;;;;15.30;7.90;;;;;;;6.91;89.33;96236.11;104234;1270;108669;-73
2023/03/09 02:00:12;;;;;;;15.70;7.00;;;;;;;6.91;88.83;96240.31;104249;1268;99921;-73
2023/03/09 02:02:45;;;;;;;11.20;6.40;;;;;;;6.92;89.10;96244.63;104290;1268;100663;-72
2023/03/09 02:05:39;;;;;;;28.30;11.20;;;;;;;6.92;88.93;96248.28;104329;1268;113010;-74
2023/03/09 02:08:16;;;;;;;13.40;7.00;;;;;;;6.91;88.63;96255.11;104124;1287;99461;-72
2023/03/09 02:11:01;;;;;;;19.40;9.10;;;;;;;6.90;89.31;96257.19;104034;1287;108214;-72
2023/03/09 02:13:58;;;;;;;26.20;10.60;;;;;;;6.89;89.37;96260.02;104275;1287;99328;-71
2023/03/09 02:16:38;;;;;;;29.30;11.60;;;;;;;6.89;89.16;96254.12;104282;1271;99855;-71
2023/03/09 02:19:45;;;;;;;21.50;8.90;;;;;;;6.90;89.55;96258.18;104326;1287;113538;-71
2023/03/09 02:22:27;;;;;;;15.50;8.50;;;;;;;6.89;89.86;96255.59;104355;1268;100568;-71
2023/03/09 02:25:08;;;;;;;12.10;6.00;;;;;;;6.89;90.07;96254.42;104928;1264;108913;-72
2023/03/09 02:27:35;;;;;;;22.30;10.10;;;;;;;6.88;90.01;96250.20;104923;1264;99250;-73
2023/03/09 02:30:03;;;;;;;19.40;8.80;;;;;;;6.87;89.79;96240.70;104923;1271;99334;-72
2023/03/09 02:32:31;;;;;;;22.90;11.70;;;;;;;6.88;89.76;96238.68;104920;1264;113897;-73
2023/03/09 02:34:58;;;;;;;24.30;11.20;;;;;;;6.89;89.98;96236.30;104626;1265;99422;-73
2023/03/09 02:37:29;;;;;;;30.10;12.60;;;;;;;6.90;90.19;96233.98;104902;1262;99384;-73
2023/03/09 02:39:59;;;;;;;;;;;;;;;6.92;90.64;96227.42;104882;1262;100559;-74
2023/03/09 02:42:28;;;;;;;23.90;10.20;;;;;;;6.92;90.60;96222.69;104924;1262;99752;-73
2023/03/09 02:44:56;;;;;;;27.20;11.00;;;;;;;6.93;90.50;96219.61;105017;1263;113391;-73
2023/03/09 02:47:23;;;;;;;21.60;10.40;;;;;;;6.94;90.45;96218.98;104956;1263;99268;-74
2023/03/09 02:49:50;;;;;;;22.90;9.70;;;;;;;6.94;90.64;96220.85;104660;1269;99256;-73
2023/03/09 02:52:18;;;;;;;22.00;9.70;;;;;;;6.94;90.93;96221.01;104685;1260;99719;-72
2023/03/09 02:54:45;;;;;;;19.60;9.70;;;;;;;6.96;91.09;96216.62;104879;1258;99270;-76
2023/03/09 02:57:12;;;;;;;21.00;9.00;;;;;;;6.96;90.73;96217.49;104989;1262;100894;-74
2023/03/09 02:59:39;;;;;;;14.80;6.60;;;;;;;6.98;91.42;96216.21;104988;1260;99823;-72
2023/03/09 03:02:07;;;;;;;21.10;8.60;;;;;;;7.00;91.97;96210.04;104894;1262;100558;-73
2023/03/09 03:04:34;;;;;;;14.70;7.00;;;;;;;6.99;92.19;96210.49;104972;1262;99359;-74
2023/03/09 03:07:01;;;;;;;13.90;6.60;;;;;;;7.01;92.59;96207.67;104942;1276;99283;-74
2023/03/09 03:09:28;;;;;;;8.00;4.30;;;;;;;7.01;92.93;96201.98;104960;1261;99939;-74
2023/03/09 03:11:55;;;;;;;12.80;7.60;;;;;;;7.04;92.74;96198.16;105088;1272;99686;-73
2023/03/09 03:14:22;;;;;;;15.80;7.70;;;;;;;7.06;93.20;96198.54;104991;1261;99250;-71
2023/03/09 03:16:48;;;;;;;13.30;5.60;;;;;;;7.07;92.81;96198.08;104987;1261;99336;-75
2023/03/09 03:19:15;;;;;;;12.60;6.00;;;;;;;7.08;93.47;96195.92;104957;1260;99294;-73
2023/03/09 03:21:42;;;;;;;7.40;3.90;;;;;;;7.09;93.53;96191.27;104956;1261;99286;-73
2023/03/09 03:24:09;;;;;;;8.60;4.80;;;;;;;7.10;93.55;96184.39;104794;1262;99241;-74
2023/03/09 03:26:36;;;;;;;9.00;4.70;;;;;;;7.11;93.42;96184.88;104986;1279;99267;-76
2023/03/09 03:29:03;;;;;;;9.20;4.60;;;;;;;7.11;93.25;96186.67;104919;1270;113074;-75
2023/03/09 03:31:31;;;;;;;8.20;4.30;;;;;;;7.13;93.57;96188.57;104957;1263;99323;-77
2023/03/09 03:33:58;;;;;;;11.30;5.40;;;;;;;7.14;93.62;96189.23;104798;1257;99278;-71
2023/03/09 03:36:25;;;;;;;15.00;6.10;;;;;;;7.16;93.44;96189.51;104914;1260;99329;-76
2023/03/09 03:38:52;;;;;;;10.50;4.30;;;;;;;7.17;93.18;96191.40;105016;1272;99329;-76
2023/03/09 03:41:19;;;;;;;13.20;6.20;;;;;;;7.18;93.12;96189.95;104935;1262;99333;-75
2023/03/09 03:43:46;;;;;;;15.80;6.50;;;;;;;7.20;93.46;96191.53;104866;1261;99344;-76
2023/03/09 03:46:13;;;;;;;22.80;9.60;;;;;;;7.22;93.08;96200.05;104883;1261;99273;-73
2023/03/09 03:48:42;;;;;;;8.80;5.10;;;;;;;7.22;92.83;96200.08;104987;1262;99371;-76
2023/03/09 03:51:09;;;;;;;12.80;8.80;;;;;;;7.23;93.23;96202.58;104944;1270;99927;-75
2023/03/09 03:53:37;;;;;;;10.20;5.20;;;;;;;7.25;92.97;96203.02;104848;1273;99253;-74
2023/03/09 03:56:04;;;;;;;19.30;9.10;;;;;;;7.26;92.99;96203.52;104870;1257;99242;-75
2023/03/09 03:58:31;;;;;;;20.60;9.00;;;;;;;7.29;92.32;96204.81;104933;1262;99329;-75
2023/03/09 04:00:59;;;;;;;14.90;7.30;;;;;;;7.31;92.69;96204.94;104911;1261;99843;-78
2023/03/09 04:03:26;;;;;;;9.80;4.30;;;;;;;7.30;92.47;96197.15;104960;1262;99237;-77
2023/03/09 04:05:53;;;;;;;16.50;7.60;;;;;;;7.31;93.12;96198.87;104654;1272;99236;-78
2023/03/09 04:08:20;;;;;;;23.40;9.60;;;;;;;7.33;92.49;96200.08;104914;1262;99282;-78
2023/03/09 04:10:47;;;;;;;30.20;11.60;;;;;;;7.33;92.43;96205.16;104890;1257;100509;-77
2023/03/09 04:13:15;;;;;;;11.40;5.30;;;;;;;7.35;92.63;96198.35;104816;1279;99651;-71
2023/03/09 04:15:42;;;;;;;22.70;9.60;;;;;;;7.35;92.68;96194.23;104808;1262;99310;-80
2023/03/09 04:18:09;;;;;;;16.40;7.50;;;;;;;7.36;92.67;96195.17;105016;1279;99249;-77
2023/03/09 04:20:38;;;;;;;15.00;6.30;;;;;;;7.38;92.23;96193.21;104978;1279;99263;-77
2023/03/09 04:23:05;;;;;;;14.70;6.70;;;;;;;7.38;92.23;96195.23;104997;1257;99249;-78
2023/03/09 04:25:32;;;;;;;14.10;6.80;;;;;;;7.38;92.50;96194.08;104917;1260;99337;-77
2023/03/09 04:27:59;;;;;;;11.60;5.90;;;;;;;7.40;92.23;96189.98;104839;1257;99758;-78
2023/03/09 04:30:26;;;;;;;20.90;8.40;;;;;;;7.41;92.16;96182.29;104927;1262;99298;-73
2023/03/09 04:32:53;;;;;;;10.00;5.10;;;;;;;7.41;92.35;96183.77;104848;1257;99358;-77
2023/03/09 04:35:20;;;;;;;12.00;6.20;;;;;;;7.42;91.99;96185.34;104812;1261;100597;-77
2023/03/09 04:37:48;;;;;;;10.10;4.90;;;;;;;7.42;92.17;96178.11;104910;1257;99193;-76
2023/03/09 04:40:15;;;;;;;8.10;4.10;;;;;;;7.44;92.29;96176.98;104964;1277;99753;-74
2023/03/09 04:42:42;;;;;;;10.60;5.20;;;;;;;7.45;91.92;96173.05;104903;1270;99225;-74
2023/03/09 04:45:10;;;;;;;19.20;7.60;;;;;;;7.47;91.86;96175.19;104890;1270;99269;-73
2023/03/09 04:47:37;;;;;;;10.90;4.90;;;;;;;7.48;91.77;96170.92;104924;1262;99256;-72
2023/03/09 04:50:05;;;;;;;16.30;6.90;;;;;;;7.49;91.14;96173.67;104905;1257;99830;-70
2023/03/09 04:52:32;;;;;;;17.60;7.80;;;;;;;7.49;91.16;96168.37;104941;1273;99246;-71
2023/03/09 04:54:59;;;;;;;15.10;6.40;;;;;;;7.48;91.47;96168.37;104857;1271;99324;-70
2023/03/09 04:57:28;;;;;;;11.70;4.80;;;;;;;7.48;91.50;96168.98;104631;1266;99260;-70
2023/03/09 04:59:56;;;;;;;10.40;5.10;;;;;;;7.49;91.25;96168.13;104628;1265;99732;-70
2023/03/09 05:02:22;;;;;;;15.90;7.00;;;;;;;7.48;91.50;96167.10;104889;1262;99259;-70
2023/03/09 05:04:50;;;;;;;13.30;6.70;;;;;;;7.45;91.18;96161.52;104792;1271;99467;-70
2023/03/09 05:07:16;;;;;;;10.10;6.10;;;;;;;7.42;91.33;96160.05;104833;1261;99249;-70
2023/03/09 05:09:44;;;;;;;66.10;37.60;;;;;;;7.38;91.44;96148.98;104773;1263;99337;-70
2023/03/09 05:12:11;;;;;;;83.20;46.80;;;;;;;7.35;91.46;96146.04;104893;1262;99228;-70
2023/03/09 05:14:38;;;;;;;257.50;97.40;;;;;;;7.35;91.17;96144.48;104836;1272;99268;-70
2023/03/09 05:17:05;;;;;;;504.70;171.60;;;;;;;7.34;91.20;96146.10;104701;1257;99313;-70
2023/03/09 05:19:35;;;;;;;179.60;58.30;;;;;;;7.36;91.27;96147.77;104690;1279;99253;-70
2023/03/09 05:22:03;;;;;;;52.50;20.40;;;;;;;7.37;90.93;96144.92;104738;1261;99173;-70
2023/03/09 05:24:30;;;;;;;392.20;110.40;;;;;;;7.38;90.91;96145.56;104855;1261;113336;-70
2023/03/09 05:26:57;;;;;;;360.60;93.50;;;;;;;7.39;90.36;96146.91;104873;1280;99230;-70
2023/03/09 05:29:25;;;;;;;737.60;369.90;;;;;;;7.39;90.50;96147.22;104727;1263;99719;-70
2023/03/09 05:31:53;;;;;;;137.00;67.30;;;;;;;7.40;90.57;96150.05;104851;1271;99256;-69
2023/03/09 05:34:20;;;;;;;104.00;58.20;;;;;;;7.41;90.67;96144.30;104727;1269;99297;-72
2023/03/09 05:36:47;;;;;;;67.60;44.70;;;;;;;7.42;90.48;96144.17;104878;1261;99358;-70
2023/03/09 05:39:16;;;;;;;124.50;81.40;;;;;;;7.45;90.65;96141.84;104874;1257;99281;-72
2023/03/09 05:41:43;;;;;;;49.00;30.50;;;;;;;7.49;90.24;96143.09;104982;1270;99314;-69
2023/03/09 05:44:13;;;;;;;14.90;7.30;;;;;;;7.52;90.16;96145.54;104866;1279;99358;-69
2023/03/09 05:46:41;;;;;;;26.20;13.50;;;;;;;7.55;89.66;96146.16;104944;1260;99746;-70
2023/03/09 05:49:09;;;;;;;33.40;18.10;;;;;;;7.58;89.45;96147.31;104527;1264;113022;-70
2023/03/09 05:51:37;;;;;;;21.20;12.30;;;;;;;7.60;89.46;96148.75;104987;1259;99240;-69
2023/03/09 05:54:04;;;;;;;53.40;34.40;;;;;;;7.59;89.32;96151.94;104909;1270;100414;-69
2023/03/09 05:56:31;;;;;;;54.30;31.60;;;;;;;7.58;89.47;96155.42;104915;1262;99268;-69
2023/03/09 05:58:58;;;;;;;33.40;18.70;;;;;;;7.56;89.81;96150.85;104809;1272;99273;-69
2023/03/09 06:01:27;;;;;;;19.10;11.50;;;;;;;7.56;89.90;96148.51;104894;1274;99743;-69
2023/03/09 06:03:55;;;;;;;26.90;19.80;;;;;;;7.56;89.93;96147.27;104901;1262;99348;-68
2023/03/09 06:06:23;;;;;;;83.60;61.30;;;;;;;7.54;90.09;96144.04;104771;1260;108001;-68
2023/03/09 06:08:50;;;;;;;21.10;13.50;;;;;;;7.55;90.10;96141.86;104582;1262;99326;-67
2023/03/09 06:11:18;;;;;;;21.50;14.50;;;;;;;7.57;90.01;96138.48;104863;1262;99694;-67
2023/03/09 06:13:45;;;;;;;21.10;13.20;;;;;;;7.59;90.11;96143.15;104941;1263;113651;-68
2023/03/09 06:16:15;;;;;;;15.70;8.60;;;;;;;7.61;90.16;96140.92;104885;1272;99274;-67
2023/03/09 06:18:43;;;;;;;14.10;7.70;;;;;;;7.63;89.88;96136.05;104589;1270;108089;-67
2023/03/09 06:21:11;;;;;;;9.90;5.50;;;;;;;7.66;89.39;96129.58;104512;1265;99355;-68
2023/03/09 06:23:38;;;;;;;13.40;6.30;;;;;;;7.71;89.28;96128.05;104527;1276;99762;-67
2023/03/09 06:26:08;;;;;;;16.30;8.70;;;;;;;7.74;88.99;96119.84;104759;1261;113530;-68
2023/03/09 06:28:35;;;;;;;18.20;10.20;;;;;;;7.75;89.05;96118.08;104540;1264;99416;-68
2023/03/09 06:31:12;;;;;;;13.80;7.80;;;;;;;7.76;89.26;96119.75;104635;1262;99842;-68
2023/03/09 06:33:43;;;;;;;22.80;13.10;;;;;;;7.78;89.13;96123.20;104683;1274;99269;-68
2023/03/09 06:36:13;;;;;;;18.60;11.80;;;;;;;7.79;88.60;96119.87;104956;1262;99721;-69
2023/03/09 06:38:40;;;;;;;34.60;21.90;;;;;;;7.82;88.58;96118.50;104360;1264;113909;-68
2023/03/09 06:41:08;;;;;;;72.00;47.00;;;;;;;7.84;88.26;96121.28;104700;1262;99323;-68
2023/03/09 06:43:36;;;;;;;41.20;28.70;;;;;;;7.88;88.26;96118.82;104574;1260;99709;-69
2023/03/09 06:46:03;;;;;;;21.50;13.90;;;;;;;7.92;88.12;96114.29;104639;1279;99279;-69
2023/03/09 06:48:30;;;;;;;12.80;7.10;;;;;;;7.95;88.04;96113.97;104765;1271;99310;-69
2023/03/09 06:50:57;;;;;;;12.00;7.00;;;;;;;7.99;87.99;96114.27;104606;1261;99402;-68
2023/03/09 06:53:24;;;;;;;34.00;20.50;;;;;;;8.03;88.21;96116.66;104603;1262;99289;-68
2023/03/09 06:55:51;;;;;;;15.80;7.20;;;;;;;8.07;87.97;96111.29;104940;1264;99275;-68
2023/03/09 06:58:18;;;;;;;40.50;24.80;;;;;;;8.11;88.06;96102.48;104639;1271;99368;-70
2023/03/09 07:00:46;;;;;;;34.10;22.20;;;;;;;8.13;88.07;96091.38;104561;1269;99243;-70
2023/03/09 07:03:16;;;;;;;7.00;4.60;;;;;;;8.13;88.02;96082.73;104877;1272;100455;-67
2023/03/09 07:05:47;;;;;;;8.20;4.70;;;;;;;8.11;88.06;96079.60;104516;1260;99324;-69
2023/03/09 07:08:14;;;;;;;14.40;9.60;;;;;;;8.08;88.23;96074.46;104695;1262;99243;-70
2023/03/09 07:10:41;;;;;;;6.00;3.90;;;;;;;8.05;88.58;96072.30;104930;1262;99324;-72
2023/03/09 07:13:15;;;;;;;10.10;6.50;;;;;;;8.03;88.79;96069.23;104656;1260;99306;-73
2023/03/09 07:15:43;;;;;;;31.30;20.60;;;;;;;8.00;89.28;96075.02;104765;1262;113751;-73
2023/03/09 07:18:10;;;;;;;16.50;9.50;;;;;;;7.99;89.33;96088.79;104588;1260;99224;-72
2023/03/09 07:20:39;;;;;;;7.50;4.60;;;;;;;7.98;89.33;96098.50;104546;1260;108618;-78
2023/03/09 07:23:07;;;;;;;12.70;7.50;;;;;;;7.96;90.13;96106.89;104702;1262;99355;-79
2023/03/09 07:25:35;;;;;;;124.60;69.50;;;;;;;7.93;90.65;96107.59;104673;1262;100438;-77
2023/03/09 07:28:04;;;;;;;17.80;7.30;;;;;;;7.90;91.25;96109.83;104922;1262;113533;-78
2023/03/09 07:30:37;;;;;;;18.70;10.50;;;;;;;7.87;91.63;96108.27;104308;1267;99231;-77
2023/03/09 07:33:04;;;;;;;42.70;22.10;;;;;;;7.86;91.51;96112.06;104750;1261;108791;-77
2023/03/09 07:35:31;;;;;;;14.60;7.70;;;;;;;7.82;92.00;96117.20;104721;1265;99251;-77
2023/03/09 07:37:58;;;;;;;190.20;101.90;;;;;;;7.80;92.60;96119.27;104853;1273;99227;-76
2023/03/09 07:40:25;;;;;;;25.80;13.70;;;;;;;7.78;92.28;96114.33;104726;1263;99287;-78
2023/03/09 07:42:53;;;;;;;337.10;175.50;;;;;;;7.78;92.67;96116.73;105055;1270;99248;-74
2023/03/09 07:45:21;;;;;;;26.40;11.20;;;;;;;7.80;93.02;96124.56;105084;1264;100396;-76
2023/03/09 07:47:49;;;;;;;19.60;10.50;;;;;;;7.81;93.43;96126.52;105074;1256;99252;-74
2023/03/09 07:50:18;;;;;;;312.70;130.20;;;;;;;7.83;93.64;96122.13;105172;1261;100526;-75
2023/03/09 07:52:45;;;;;;;102.40;44.10;;;;;;;7.86;93.36;96127.95;105191;1260;113275;-78
2023/03/09 07:55:13;;;;;;;91.10;36.70;;;;;;;7.88;94.25;96125.03;104801;1263;100441;-75
2023/03/09 07:57:41;;;;;;;165.00;51.40;;;;;;;7.91;94.08;96123.60;105006;1262;107641;-75
2023/03/09 08:00:12;;;;;;;454.10;172.10;;;;;;;7.93;94.96;96126.00;106122;1260;99231;-76
2023/03/09 08:02:40;;;;;;;209.40;67.00;;;;;;;7.96;94.69;96127.23;104806;1273;99800;-76
2023/03/09 08:05:09;;;;;;;718.60;293.60;;;;;;;8.00;94.55;96127.00;105038;1263;113252;-75
2023/03/09 08:07:37;;;;;;;128.50;42.70;;;;;;;8.05;94.74;96127.40;104699;1276;99256;-75
2023/03/09 08:10:05;;;;;;;37.20;15.60;;;;;;;8.06;95.17;96130.22;104956;1279;108563;-74
2023/03/09 08:12:31;;;;;;;100.20;31.60;;;;;;;8.08;95.45;96127.23;104883;1257;100499;-74
2023/03/09 08:14:58;;;;;;;917.50;402.00;;;;;;;8.10;95.71;96128.05;104848;1279;100016;-75
2023/03/09 08:17:26;;;;;;;430.80;174.70;;;;;;;8.13;95.55;96124.83;104553;1263;100856;-73
2023/03/09 08:19:53;;;;;;;173.50;61.50;;;;;;;8.16;96.02;96125.59;104603;1272;99345;-74
2023/03/09 08:22:20;;;;;;;287.20;110.60;;;;;;;8.20;96.18;96127.29;104685;1263;99267;-73
2023/03/09 08:24:47;;;;;;;484.40;185.50;;;;;;;8.24;96.08;96128.00;104775;1263;100540;-75
2023/03/09 08:27:14;;;;;;;185.40;65.80;;;;;;;8.31;96.07;96133.33;105083;1261;99320;-71
2023/03/09 08:29:41;;;;;;;383.50;146.80;;;;;;;8.36;96.32;96132.27;105020;1262;99328;-73
2023/03/09 08:32:09;;;;;;;260.70;92.70;;;;;;;8.40;96.32;96129.45;104788;1270;108582;-74
2023/03/09 08:34:37;;;;;;;196.90;67.80;;;;;;;8.47;96.28;96132.23;104939;1263;99228;-74
2023/03/09 08:37:05;;;;;;;1080.90;448.40;;;;;;;8.50;95.88;96135.16;104806;1271;99681;-74
2023/03/09 08:39:31;;;;;;;197.80;65.80;;;;;;;8.55;95.88;96131.53;105150;1257;99279;-74
2023/03/09 08:41:58;;;;;;;105.30;38.40;;;;;;;8.57;96.01;96131.80;104937;1260;99243;-74
2023/03/09 08:44:25;;;;;;;181.50;68.10;;;;;;;8.56;96.23;96131.48;104835;1272;99380;-74
2023/03/09 08:46:52;;;;;;;385.60;156.70;;;;;;;8.55;95.92;96125.38;104927;1274;99380;-73
2023/03/09 08:49:19;;;;;;;71.90;25.90;;;;;;;8.53;96.00;96125.47;104849;1263;99261;-74
2023/03/09 08:51:47;;;;;;;615.30;272.10;;;;;;;8.50;95.91;96130.26;104889;1270;99800;-74
2023/03/09 08:54:14;;;;;;;539.80;209.30;;;;;;;8.49;96.18;96131.02;104501;1260;108052;-74
2023/03/09 08:56:41;;;;;;;73.60;28.10;;;;;;;8.48;96.19;96133.88;105093;1257;99185;-74
2023/03/09 08:59:09;;;;;;;473.40;199.30;;;;;;;8.48;96.16;96140.91;104831;1261;100646;-73
2023/03/09 09:01:36;;;;;;;177.60;67.50;;;;;;;8.47;96.03;96150.16;104848;1272;99228;-74
2023/03/09 09:04:04;;;;;;;40.10;16.60;;;;;;;8.45;96.20;96150.92;105070;1262;99310;-75
2023/03/09 09:06:30;;;;;;;38.10;17.50;;;;;;;8.41;96.35;96155.52;105081;1261;99772;-75
2023/03/09 09:08:57;;;;;;;82.10;35.00;;;;;;;8.38;96.62;96165.43;106002;1262;99252;-75
2023/03/09 09:11:24;;;;;;;75.30;37.00;;;;;;;8.39;96.59;96170.67;104969;1262;100552;-74
2023/03/09 09:13:52;;;;;;;106.30;49.70;;;;;;;8.40;96.77;96168.13;104925;1266;99162;-75
2023/03/09 09:16:18;;;;;;;40.40;22.40;;;;;;;8.44;96.72;96170.94;104955;1263;99326;-75
2023/03/09 09:18:47;;;;;;;67.60;39.20;;;;;;;8.47;96.66;96168.02;104768;1263;99253;-70
2023/03/09 09:21:16;;;;;;;27.20;14.80;;;;;;;8.49;96.48;96174.14;104801;1262;99242;-74
2023/03/09 09:23:44;;;;;;;16.10;8.10;;;;;;;8.51;96.40;96180.20;105088;1263;113553;-75
2023/03/09 09:26:13;;;;;;;16.50;9.10;;;;;;;8.51;96.60;96187.36;104868;1279;100567;-75
2023/03/09 09:28:41;;;;;;;18.50;10.30;;;;;;;8.53;96.86;96189.90;104972;1263;108132;-73
2023/03/09 09:31:15;;;;;;;20.20;10.60;;;;;;;8.56;96.91;96189.41;104563;1274;99329;-75
2023/03/09 09:33:42;;;;;;;15.20;8.80;;;;;;;8.59;96.58;96192.98;105057;1263;99763;-76
2023/03/09 09:36:13;;;;;;;16.40;8.90;;;;;;;8.59;96.28;96195.40;106164;1257;99158;-72
2023/03/09 09:38:42;;;;;;;19.10;9.60;;;;;;;8.59;96.14;96198.91;104677;1260;99318;-75
2023/03/09 09:41:37;;;;;;;23.60;12.20;;;;;;;8.60;95.65;96204.39;104831;1281;108572;-76
2023/03/09 09:44:10;;;;;;;17.00;8.40;;;;;;;8.60;95.08;96211.50;104687;1273;99378;-79
2023/03/09 09:46:39;;;;;;;14.30;7.90;;;;;;;8.58;95.08;96213.95;104864;1262;100034;-82
2023/03/09 09:49:19;;;;;;;20.00;9.90;;;;;;;8.60;95.04;96213.45;104909;1270;113642;-75
2023/03/09 09:51:59;;;;;;;10.70;6.00;;;;;;;8.70;95.43;96221.11;104820;1277;99401;-79
2023/03/09 09:54:44;;;;;;;10.10;6.00;;;;;;;8.74;95.28;96225.95;104966;1262;108251;-78
2023/03/09 09:57:42;;;;;;;13.80;8.60;;;;;;;8.79;94.83;96225.57;105074;1262;99173;-75
2023/03/09 10:00:29;;;;;;;14.80;7.20;;;;;;;8.87;95.08;96229.23;104235;1265;100064;-78
2023/03/09 10:03:14;;;;;;;10.70;5.90;;;;;;;8.95;94.89;96229.59;104390;1270;113553;-80
2023/03/09 10:05:57;;;;;;;10.00;5.20;;;;;;;9.02;94.86;96229.03;104508;1279;99953;-76
2023/03/09 10:08:24;;;;;;;9.00;6.00;;;;;;;9.08;94.53;96240.98;104137;1270;108508;-79
2023/03/09 10:10:52;;;;;;;11.40;5.30;;;;;;;9.16;94.91;96245.27;104153;1266;99439;-76
2023/03/09 10:13:32;;;;;;;9.20;5.30;;;;;;;9.22;94.97;96245.12;104177;1268;99614;-75
2023/03/09 10:16:05;;;;;;;5.70;3.60;;;;;;;9.25;93.92;96256.75;104239;1268;113218;-76
2023/03/09 10:18:39;;;;;;;8.50;5.50;;;;;;;9.22;93.17;96261.91;104177;1272;99948;-78
2023/03/09 10:21:18;;;;;;;13.20;7.90;;;;;;;9.19;93.43;96269.21;104061;1272;108224;-73
2023/03/09 10:23:46;;;;;;;8.10;4.90;;;;;;;9.17;93.73;96273.22;104125;1269;100577;-76
2023/03/09 10:26:37;;;;;;;10.50;5.50;;;;;;;9.12;93.47;96283.53;104340;1268;99506;-73
2023/03/09 10:29:39;;;;;;;10.70;6.20;;;;;;;9.06;93.85;96291.23;104201;1282;113528;-70
2023/03/09 10:32:15;;;;;;;11.20;6.80;;;;;;;8.98;94.18;96297.24;104220;1271;99428;-79
2023/03/09 10:35:17;;;;;;;15.40;7.70;;;;;;;8.95;94.08;96305.53;104201;1268;108833;-77
2023/03/09 10:37:48;;;;;;;13.40;6.50;;;;;;;8.89;94.13;96315.27;104107;1284;99527;-75
2023/03/09 10:40:22;;;;;;;15.10;8.50;;;;;;;8.83;94.65;96321.63;104252;1268;99367;-79
2023/03/09 10:42:50;;;;;;;15.30;9.00;;;;;;;8.78;94.84;96325.50;104194;1266;113790;-73
2023/03/09 10:45:33;;;;;;;12.50;7.70;;;;;;;8.74;94.92;96330.04;104205;1268;99519;-78
2023/03/09 10:48:05;;;;;;;12.20;6.30;;;;;;;8.69;95.21;96338.13;104062;1271;107571;-74
2023/03/09 10:50:40;;;;;;;9.30;5.80;;;;;;;8.64;95.28;96346.98;104209;1272;99827;-74
2023/03/09 10:53:22;;;;;;;12.40;6.80;;;;;;;8.60;95.65;96351.27;104292;1277;99824;-74
2023/03/09 10:55:52;;;;;;;10.30;5.70;;;;;;;8.56;95.57;96357.20;104295;1269;113711;-74
2023/03/09 10:58:32;;;;;;;10.20;6.10;;;;;;;8.50;95.57;96370.06;104902;1281;99423;-71
2023/03/09 11:01:11;;;;;;;7.80;4.00;;;;;;;8.46;95.40;96375.27;105223;1277;107621;-73
2023/03/09 11:03:41;;;;;;;13.20;7.00;;;;;;;8.40;95.38;96383.03;104288;1269;99361;-74
2023/03/09 11:06:34;;;;;;;7.90;4.50;;;;;;;8.38;95.45;96385.56;104508;1278;99330;-74
2023/03/09 11:09:13;;;;;;;7.10;4.30;;;;;;;8.36;95.46;96389.41;104501;1264;113538;-75
2023/03/09 11:11:44;;;;;;;;;;;;;;;8.36;95.07;96397.83;104641;1264;99882;-73
2023/03/09 11:14:28;;;;;;;9.00;5.30;;;;;;;8.36;95.25;96396.27;104604;1266;108833;-74
2023/03/09 11:16:59;;;;;;;8.60;4.70;;;;;;;8.38;95.40;96395.52;105057;1262;99414;-74
2023/03/09 11:19:27;;;;;;;8.10;5.00;;;;;;;8.41;95.81;96404.09;104740;1265;99462;-75
2023/03/09 11:21:57;;;;;;;9.50;5.60;;;;;;;8.48;96.66;96409.23;104733;1258;112255;-74
2023/03/09 11:24:36;;;;;;;11.10;5.60;;;;;;;8.58;96.90;96416.44;104760;1281;100282;-75
2023/03/09 11:27:11;;;;;;;8.10;4.70;;;;;;;8.68;97.05;96420.71;104777;1273;108894;-72
2023/03/09 11:29:37;;;;;;;8.60;5.20;;;;;;;8.75;96.45;96435.21;104604;1268;99250;-75
2023/03/09 11:32:06;;;;;;;6.50;3.80;;;;;;;8.79;95.90;96444.20;104726;1263;99256;-74
2023/03/09 11:34:36;;;;;;;5.30;3.70;;;;;;;8.84;95.65;96454.13;104778;1271;113572;-74